sensor_id;sensor_type;location;lat;lon;timestamp;P1;durP1;ratioP1;P2;durP2;ratioP2
6735;SDS011;3405;50.576;12.364;2023-02-11T00:00:07;11.55;;;7.18;;
6735;SDS011;3405;50.576;12.364;2023-02-11T00:02:34;13.55;;;7.57;;
6735;SDS011;3405;50.576;12.364;2023-02-11T00:05:00;11.48;;;6.85;;
6735;SDS011;3405;50.576;12.364;2023-02-11T00:07:30;9.23;;;6.60;;
6735;SDS011;3405;50.576;12.364;2023-02-11T00:09:56;10.27;;;6.57;;
6735;SDS011;3405;50.576;12.364;2023-02-11T00:12:22;10.18;;;6.95;;
6735;SDS011;3405;50.576;12.364;2023-02-11T00:14:48;8.80;;;6.55;;
6735;SDS011;3405;50.576;12.364;2023-02-11T00:17:14;10.32;;;6.72;;
6735;SDS011;3405;50.576;12.364;2023-02-11T00:19:40;9.63;;;6.65;;
6735;SDS011;3405;50.576;12.364;2023-02-11T00:22:06;9.93;;;6.53;;
6735;SDS011;3405;50.576;12.364;2023-02-11T00:24:32;9.90;;;6.10;;
6735;SDS011;3405;50.576;12.364;2023-02-11T00:26:58;10.07;;;6.45;;
6735;SDS011;3405;50.576;12.364;2023-02-11T00:29:23;8.15;;;5.82;;
6735;SDS011;3405;50.576;12.364;2023-02-11T00:31:49;9.25;;;6.25;;
6735;SDS011;3405;50.576;12.364;2023-02-11T00:34:15;8.80;;;5.78;;
6735;SDS011;3405;50.576;12.364;2023-02-11T00:36:41;8.43;;;5.75;;
6735;SDS011;3405;50.576;12.364;2023-02-11T00:39:07;10.63;;;5.95;;
6735;SDS011;3405;50.576;12.364;2023-02-11T00:41:33;9.18;;;5.95;;
6735;SDS011;3405;50.576;12.364;2023-02-11T00:44:02;8.90;;;6.35;;
6735;SDS011;3405;50.576;12.364;2023-02-11T00:46:28;9.35;;;5.60;;
6735;SDS011;3405;50.576;12.364;2023-02-11T00:48:54;8.30;;;5.80;;
6735;SDS011;3405;50.576;12.364;2023-02-11T00:51:22;7.07;;;5.43;;
6735;SDS011;3405;50.576;12.364;2023-02-11T00:53:48;7.18;;;5.43;;
6735;SDS011;3405;50.576;12.364;2023-02-11T00:56:14;8.88;;;5.78;;
6735;SDS011;3405;50.576;12.364;2023-02-11T00:58:40;7.28;;;5.45;;
6735;SDS011;3405;50.576;12.364;2023-02-11T01:01:05;6.85;;;5.13;;
6735;SDS011;3405;50.576;12.364;2023-02-11T01:03:31;7.53;;;5.03;;
6735;SDS011;3405;50.576;12.364;2023-02-11T01:05:57;9.07;;;5.90;;
6735;SDS011;3405;50.576;12.364;2023-02-11T01:08:23;7.30;;;5.25;;
6735;SDS011;3405;50.576;12.364;2023-02-11T01:10:53;7.25;;;5.40;;
6735;SDS011;3405;50.576;12.364;2023-02-11T01:13:19;7.28;;;5.35;;
6735;SDS011;3405;50.576;12.364;2023-02-11T01:15:45;7.63;;;4.95;;
6735;SDS011;3405;50.576;12.364;2023-02-11T01:18:11;7.18;;;5.38;;
6735;SDS011;3405;50.576;12.364;2023-02-11T01:20:37;7.28;;;5.22;;
6735;SDS011;3405;50.576;12.364;2023-02-11T01:23:03;7.47;;;5.43;;
6735;SDS011;3405;50.576;12.364;2023-02-11T01:25:29;8.93;;;5.35;;
6735;SDS011;3405;50.576;12.364;2023-02-11T01:27:55;7.13;;;5.32;;
6735;SDS011;3405;50.576;12.364;2023-02-11T01:30:21;9.32;;;5.43;;
6735;SDS011;3405;50.576;12.364;2023-02-11T01:32:47;7.38;;;4.60;;
6735;SDS011;3405;50.576;12.364;2023-02-11T01:35:13;7.70;;;5.53;;
6735;SDS011;3405;50.576;12.364;2023-02-11T01:37:39;8.23;;;5.57;;
6735;SDS011;3405;50.576;12.364;2023-02-11T01:40:06;7.07;;;4.82;;
6735;SDS011;3405;50.576;12.364;2023-02-11T01:42:35;6.10;;;4.80;;
6735;SDS011;3405;50.576;12.364;2023-02-11T01:45:03;6.70;;;4.88;;
6735;SDS011;3405;50.576;12.364;2023-02-11T01:47:47;7.22;;;4.72;;
6735;SDS011;3405;50.576;12.364;2023-02-11T01:50:13;5.78;;;4.95;;
6735;SDS011;3405;50.576;12.364;2023-02-11T01:52:39;5.97;;;4.45;;
6735;SDS011;3405;50.576;12.364;2023-02-11T01:55:07;5.88;;;4.82;;
6735;SDS011;3405;50.576;12.364;2023-02-11T01:57:53;7.20;;;4.55;;
6735;SDS011;3405;50.576;12.364;2023-02-11T02:00:30;5.95;;;5.00;;
6735;SDS011;3405;50.576;12.364;2023-02-11T02:03:16;6.38;;;5.18;;
6735;SDS011;3405;50.576;12.364;2023-02-11T02:08:34;5.60;;;4.60;;
6735;SDS011;3405;50.576;12.364;2023-02-11T02:11:02;6.28;;;4.57;;
6735;SDS011;3405;50.576;12.364;2023-02-11T02:13:29;6.30;;;4.78;;
6735;SDS011;3405;50.576;12.364;2023-02-11T02:18:31;5.47;;;4.68;;
6735;SDS011;3405;50.576;12.364;2023-02-11T02:21:12;5.63;;;4.30;;
6735;SDS011;3405;50.576;12.364;2023-02-11T02:29:08;5.75;;;4.18;;
6735;SDS011;3405;50.576;12.364;2023-02-11T02:34:03;5.97;;;4.40;;
6735;SDS011;3405;50.576;12.364;2023-02-11T02:36:36;6.60;;;4.53;;
6735;SDS011;3405;50.576;12.364;2023-02-11T02:39:23;5.15;;;4.10;;
6735;SDS011;3405;50.576;12.364;2023-02-11T02:41:50;5.05;;;4.05;;
6735;SDS011;3405;50.576;12.364;2023-02-11T02:44:18;4.90;;;3.80;;
6735;SDS011;3405;50.576;12.364;2023-02-11T02:46:44;5.25;;;4.13;;
6735;SDS011;3405;50.576;12.364;2023-02-11T02:49:11;4.50;;;4.10;;
6735;SDS011;3405;50.576;12.364;2023-02-11T02:51:44;5.25;;;4.20;;
6735;SDS011;3405;50.576;12.364;2023-02-11T02:56:53;5.28;;;4.00;;
6735;SDS011;3405;50.576;12.364;2023-02-11T03:02:23;4.80;;;3.72;;
6735;SDS011;3405;50.576;12.364;2023-02-11T03:04:46;5.50;;;3.97;;
6735;SDS011;3405;50.576;12.364;2023-02-11T03:12:14;4.22;;;3.83;;
6735;SDS011;3405;50.576;12.364;2023-02-11T03:14:40;5.53;;;4.28;;
6735;SDS011;3405;50.576;12.364;2023-02-11T03:17:06;5.30;;;4.35;;
6735;SDS011;3405;50.576;12.364;2023-02-11T03:19:34;5.03;;;3.95;;
6735;SDS011;3405;50.576;12.364;2023-02-11T03:22:02;5.30;;;4.00;;
6735;SDS011;3405;50.576;12.364;2023-02-11T03:24:30;4.20;;;3.55;;
6735;SDS011;3405;50.576;12.364;2023-02-11T03:26:58;4.47;;;3.83;;
6735;SDS011;3405;50.576;12.364;2023-02-11T03:32:07;4.43;;;3.78;;
6735;SDS011;3405;50.576;12.364;2023-02-11T03:34:41;3.78;;;3.28;;
6735;SDS011;3405;50.576;12.364;2023-02-11T03:37:10;4.68;;;3.88;;
6735;SDS011;3405;50.576;12.364;2023-02-11T03:39:38;5.07;;;3.80;;
6735;SDS011;3405;50.576;12.364;2023-02-11T03:42:05;4.35;;;3.95;;
6735;SDS011;3405;50.576;12.364;2023-02-11T03:44:34;5.57;;;3.88;;
6735;SDS011;3405;50.576;12.364;2023-02-11T03:47:02;4.78;;;3.80;;
6735;SDS011;3405;50.576;12.364;2023-02-11T03:49:29;4.53;;;3.88;;
6735;SDS011;3405;50.576;12.364;2023-02-11T03:51:56;3.97;;;3.58;;
6735;SDS011;3405;50.576;12.364;2023-02-11T03:54:25;4.53;;;3.63;;
6735;SDS011;3405;50.576;12.364;2023-02-11T03:56:53;3.85;;;3.28;;
6735;SDS011;3405;50.576;12.364;2023-02-11T03:59:19;3.83;;;3.30;;
6735;SDS011;3405;50.576;12.364;2023-02-11T04:01:45;4.50;;;3.88;;
6735;SDS011;3405;50.576;12.364;2023-02-11T04:04:11;3.92;;;3.53;;
6735;SDS011;3405;50.576;12.364;2023-02-11T04:06:37;5.25;;;3.85;;
6735;SDS011;3405;50.576;12.364;2023-02-11T04:09:04;4.35;;;3.90;;
6735;SDS011;3405;50.576;12.364;2023-02-11T04:11:30;4.63;;;3.45;;
6735;SDS011;3405;50.576;12.364;2023-02-11T04:13:56;3.65;;;3.33;;
6735;SDS011;3405;50.576;12.364;2023-02-11T04:16:22;4.55;;;3.53;;
6735;SDS011;3405;50.576;12.364;2023-02-11T04:18:47;4.25;;;3.55;;
6735;SDS011;3405;50.576;12.364;2023-02-11T04:21:13;4.65;;;3.65;;
6735;SDS011;3405;50.576;12.364;2023-02-11T04:23:39;4.10;;;3.58;;
6735;SDS011;3405;50.576;12.364;2023-02-11T04:26:05;4.40;;;3.40;;
6735;SDS011;3405;50.576;12.364;2023-02-11T04:28:31;4.03;;;3.35;;
6735;SDS011;3405;50.576;12.364;2023-02-11T04:30:58;4.15;;;3.65;;
6735;SDS011;3405;50.576;12.364;2023-02-11T04:33:24;4.20;;;3.28;;
6735;SDS011;3405;50.576;12.364;2023-02-11T04:35:50;5.03;;;3.30;;
6735;SDS011;3405;50.576;12.364;2023-02-11T04:38:16;4.50;;;3.33;;
6735;SDS011;3405;50.576;12.364;2023-02-11T04:40:42;4.10;;;3.35;;
6735;SDS011;3405;50.576;12.364;2023-02-11T04:43:08;4.05;;;3.20;;
6735;SDS011;3405;50.576;12.364;2023-02-11T04:45:34;3.25;;;2.95;;
6735;SDS011;3405;50.576;12.364;2023-02-11T04:48:00;3.78;;;3.13;;
6735;SDS011;3405;50.576;12.364;2023-02-11T04:50:27;4.43;;;3.25;;
6735;SDS011;3405;50.576;12.364;2023-02-11T04:52:53;3.20;;;2.90;;
6735;SDS011;3405;50.576;12.364;2023-02-11T04:55:18;4.22;;;3.05;;
6735;SDS011;3405;50.576;12.364;2023-02-11T04:57:44;4.15;;;2.88;;
6735;SDS011;3405;50.576;12.364;2023-02-11T05:00:11;6.30;;;3.20;;
6735;SDS011;3405;50.576;12.364;2023-02-11T05:02:37;4.97;;;3.10;;
6735;SDS011;3405;50.576;12.364;2023-02-11T05:05:03;5.95;;;3.08;;
6735;SDS011;3405;50.576;12.364;2023-02-11T05:07:29;7.47;;;3.42;;
6735;SDS011;3405;50.576;12.364;2023-02-11T05:09:55;5.15;;;3.15;;
6735;SDS011;3405;50.576;12.364;2023-02-11T05:12:20;4.93;;;3.45;;
6735;SDS011;3405;50.576;12.364;2023-02-11T05:14:46;6.85;;;3.35;;
6735;SDS011;3405;50.576;12.364;2023-02-11T05:17:12;7.88;;;3.95;;
6735;SDS011;3405;50.576;12.364;2023-02-11T05:19:38;6.55;;;3.75;;
6735;SDS011;3405;50.576;12.364;2023-02-11T05:22:06;7.78;;;3.97;;
6735;SDS011;3405;50.576;12.364;2023-02-11T05:24:31;6.80;;;3.92;;
6735;SDS011;3405;50.576;12.364;2023-02-11T05:26:57;8.55;;;4.25;;
6735;SDS011;3405;50.576;12.364;2023-02-11T05:29:23;8.25;;;4.45;;
6735;SDS011;3405;50.576;12.364;2023-02-11T05:31:49;8.55;;;4.25;;
6735;SDS011;3405;50.576;12.364;2023-02-11T05:34:15;6.55;;;4.13;;
6735;SDS011;3405;50.576;12.364;2023-02-11T05:36:41;6.97;;;3.67;;
6735;SDS011;3405;50.576;12.364;2023-02-11T05:39:07;5.72;;;4.00;;
6735;SDS011;3405;50.576;12.364;2023-02-11T05:41:33;5.85;;;3.80;;
6735;SDS011;3405;50.576;12.364;2023-02-11T05:43:59;5.90;;;3.60;;
6735;SDS011;3405;50.576;12.364;2023-02-11T05:46:25;5.65;;;3.78;;
6735;SDS011;3405;50.576;12.364;2023-02-11T05:48:50;6.82;;;4.03;;
6735;SDS011;3405;50.576;12.364;2023-02-11T05:51:16;6.45;;;3.58;;
6735;SDS011;3405;50.576;12.364;2023-02-11T05:53:42;6.22;;;3.67;;
6735;SDS011;3405;50.576;12.364;2023-02-11T05:56:08;5.13;;;4.18;;
6735;SDS011;3405;50.576;12.364;2023-02-11T05:58:35;7.15;;;3.80;;
6735;SDS011;3405;50.576;12.364;2023-02-11T06:01:02;5.72;;;3.35;;
6735;SDS011;3405;50.576;12.364;2023-02-11T06:03:28;5.57;;;3.38;;
6735;SDS011;3405;50.576;12.364;2023-02-11T06:05:54;6.43;;;4.05;;
6735;SDS011;3405;50.576;12.364;2023-02-11T06:08:20;5.18;;;3.60;;
6735;SDS011;3405;50.576;12.364;2023-02-11T06:10:46;5.78;;;3.50;;
6735;SDS011;3405;50.576;12.364;2023-02-11T06:13:12;5.75;;;3.80;;
6735;SDS011;3405;50.576;12.364;2023-02-11T06:15:38;5.72;;;3.55;;
6735;SDS011;3405;50.576;12.364;2023-02-11T06:18:04;5.32;;;3.97;;
6735;SDS011;3405;50.576;12.364;2023-02-11T06:20:30;7.72;;;4.10;;
6735;SDS011;3405;50.576;12.364;2023-02-11T06:22:56;5.88;;;3.75;;
6735;SDS011;3405;50.576;12.364;2023-02-11T06:25:22;4.85;;;3.10;;
6735;SDS011;3405;50.576;12.364;2023-02-11T06:27:48;4.82;;;3.45;;
6735;SDS011;3405;50.576;12.364;2023-02-11T06:30:14;3.95;;;3.40;;
6735;SDS011;3405;50.576;12.364;2023-02-11T06:32:40;4.45;;;3.47;;
6735;SDS011;3405;50.576;12.364;2023-02-11T06:35:06;6.18;;;3.78;;
6735;SDS011;3405;50.576;12.364;2023-02-11T06:37:33;4.10;;;3.38;;
6735;SDS011;3405;50.576;12.364;2023-02-11T06:39:59;4.57;;;3.60;;
6735;SDS011;3405;50.576;12.364;2023-02-11T06:42:25;4.93;;;3.58;;
6735;SDS011;3405;50.576;12.364;2023-02-11T06:44:51;6.60;;;3.65;;
6735;SDS011;3405;50.576;12.364;2023-02-11T06:47:16;4.50;;;3.70;;
6735;SDS011;3405;50.576;12.364;2023-02-11T06:49:42;4.82;;;3.60;;
6735;SDS011;3405;50.576;12.364;2023-02-11T06:52:08;3.63;;;3.00;;
6735;SDS011;3405;50.576;12.364;2023-02-11T06:54:34;5.00;;;3.38;;
6735;SDS011;3405;50.576;12.364;2023-02-11T06:57:00;5.28;;;3.22;;
6735;SDS011;3405;50.576;12.364;2023-02-11T06:59:26;4.30;;;3.45;;
6735;SDS011;3405;50.576;12.364;2023-02-11T07:01:52;4.32;;;3.50;;
6735;SDS011;3405;50.576;12.364;2023-02-11T07:04:18;4.60;;;3.10;;
6735;SDS011;3405;50.576;12.364;2023-02-11T07:06:44;4.22;;;3.47;;
6735;SDS011;3405;50.576;12.364;2023-02-11T07:09:10;3.08;;;2.78;;
6735;SDS011;3405;50.576;12.364;2023-02-11T07:11:35;4.38;;;3.13;;
6735;SDS011;3405;50.576;12.364;2023-02-11T07:14:03;4.25;;;3.13;;
6735;SDS011;3405;50.576;12.364;2023-02-11T07:16:29;3.60;;;3.25;;
6735;SDS011;3405;50.576;12.364;2023-02-11T07:18:55;3.72;;;3.08;;
6735;SDS011;3405;50.576;12.364;2023-02-11T07:21:21;4.47;;;2.85;;
6735;SDS011;3405;50.576;12.364;2023-02-11T07:23:48;4.43;;;3.08;;
6735;SDS011;3405;50.576;12.364;2023-02-11T07:26:15;3.92;;;3.20;;
6735;SDS011;3405;50.576;12.364;2023-02-11T07:28:41;3.35;;;2.90;;
6735;SDS011;3405;50.576;12.364;2023-02-11T07:31:08;4.38;;;3.50;;
6735;SDS011;3405;50.576;12.364;2023-02-11T07:33:35;3.40;;;3.10;;
6735;SDS011;3405;50.576;12.364;2023-02-11T07:36:02;5.25;;;3.58;;
6735;SDS011;3405;50.576;12.364;2023-02-11T07:38:28;3.60;;;3.25;;
6735;SDS011;3405;50.576;12.364;2023-02-11T07:40:54;6.47;;;3.10;;
6735;SDS011;3405;50.576;12.364;2023-02-11T07:43:19;4.35;;;3.13;;
6735;SDS011;3405;50.576;12.364;2023-02-11T07:45:45;5.00;;;3.28;;
6735;SDS011;3405;50.576;12.364;2023-02-11T07:48:11;3.15;;;2.75;;
6735;SDS011;3405;50.576;12.364;2023-02-11T07:50:37;3.30;;;3.00;;
6735;SDS011;3405;50.576;12.364;2023-02-11T07:53:03;3.17;;;2.72;;
6735;SDS011;3405;50.576;12.364;2023-02-11T07:55:29;3.95;;;3.30;;
6735;SDS011;3405;50.576;12.364;2023-02-11T07:57:55;3.58;;;3.05;;
6735;SDS011;3405;50.576;12.364;2023-02-11T08:00:21;4.53;;;3.20;;
6735;SDS011;3405;50.576;12.364;2023-02-11T08:02:47;3.42;;;3.13;;
6735;SDS011;3405;50.576;12.364;2023-02-11T08:05:13;3.92;;;3.22;;
6735;SDS011;3405;50.576;12.364;2023-02-11T08:07:38;4.45;;;3.05;;
6735;SDS011;3405;50.576;12.364;2023-02-11T08:10:04;4.25;;;3.08;;
6735;SDS011;3405;50.576;12.364;2023-02-11T08:12:30;3.83;;;2.90;;
6735;SDS011;3405;50.576;12.364;2023-02-11T08:14:56;3.75;;;3.17;;
6735;SDS011;3405;50.576;12.364;2023-02-11T08:17:22;3.83;;;2.85;;
6735;SDS011;3405;50.576;12.364;2023-02-11T08:19:48;3.13;;;2.80;;
6735;SDS011;3405;50.576;12.364;2023-02-11T08:22:14;3.78;;;2.80;;
6735;SDS011;3405;50.576;12.364;2023-02-11T08:24:40;2.95;;;2.63;;
6735;SDS011;3405;50.576;12.364;2023-02-11T08:27:06;3.30;;;3.00;;
6735;SDS011;3405;50.576;12.364;2023-02-11T08:29:32;3.35;;;3.00;;
6735;SDS011;3405;50.576;12.364;2023-02-11T08:31:58;3.55;;;3.00;;
6735;SDS011;3405;50.576;12.364;2023-02-11T08:34:23;3.40;;;2.97;;
6735;SDS011;3405;50.576;12.364;2023-02-11T08:36:49;3.80;;;3.00;;
6735;SDS011;3405;50.576;12.364;2023-02-11T08:39:19;3.58;;;2.72;;
6735;SDS011;3405;50.576;12.364;2023-02-11T08:41:46;3.05;;;2.70;;
6735;SDS011;3405;50.576;12.364;2023-02-11T08:44:12;3.28;;;2.95;;
6735;SDS011;3405;50.576;12.364;2023-02-11T08:46:38;4.32;;;3.05;;
6735;SDS011;3405;50.576;12.364;2023-02-11T08:49:04;3.28;;;2.97;;
6735;SDS011;3405;50.576;12.364;2023-02-11T08:51:30;3.38;;;2.90;;
6735;SDS011;3405;50.576;12.364;2023-02-11T08:53:57;4.25;;;3.00;;
6735;SDS011;3405;50.576;12.364;2023-02-11T08:56:23;4.63;;;3.08;;
6735;SDS011;3405;50.576;12.364;2023-02-11T08:58:49;4.07;;;3.20;;
6735;SDS011;3405;50.576;12.364;2023-02-11T09:01:16;3.38;;;3.08;;
6735;SDS011;3405;50.576;12.364;2023-02-11T09:03:43;2.70;;;2.50;;
6735;SDS011;3405;50.576;12.364;2023-02-11T09:06:09;4.22;;;3.15;;
6735;SDS011;3405;50.576;12.364;2023-02-11T09:08:39;3.35;;;2.80;;
6735;SDS011;3405;50.576;12.364;2023-02-11T09:11:06;4.15;;;3.40;;
6735;SDS011;3405;50.576;12.364;2023-02-11T09:13:32;3.10;;;2.70;;
6735;SDS011;3405;50.576;12.364;2023-02-11T09:15:58;3.20;;;2.90;;
6735;SDS011;3405;50.576;12.364;2023-02-11T09:18:24;3.78;;;3.22;;
6735;SDS011;3405;50.576;12.364;2023-02-11T09:20:50;3.55;;;3.20;;
6735;SDS011;3405;50.576;12.364;2023-02-11T09:23:16;3.72;;;3.00;;
6735;SDS011;3405;50.576;12.364;2023-02-11T09:25:42;3.30;;;2.90;;
6735;SDS011;3405;50.576;12.364;2023-02-11T09:28:08;3.88;;;3.20;;
6735;SDS011;3405;50.576;12.364;2023-02-11T09:30:35;4.25;;;3.25;;
6735;SDS011;3405;50.576;12.364;2023-02-11T09:33:01;3.05;;;2.72;;
6735;SDS011;3405;50.576;12.364;2023-02-11T09:35:27;3.70;;;3.05;;
6735;SDS011;3405;50.576;12.364;2023-02-11T09:37:53;2.85;;;2.65;;
6735;SDS011;3405;50.576;12.364;2023-02-11T09:40:19;3.28;;;2.92;;
6735;SDS011;3405;50.576;12.364;2023-02-11T09:42:46;3.28;;;2.97;;
6735;SDS011;3405;50.576;12.364;2023-02-11T09:45:19;3.38;;;3.08;;
6735;SDS011;3405;50.576;12.364;2023-02-11T09:47:47;3.03;;;2.60;;
6735;SDS011;3405;50.576;12.364;2023-02-11T09:50:17;3.70;;;3.10;;
6735;SDS011;3405;50.576;12.364;2023-02-11T09:52:45;2.95;;;2.65;;
6735;SDS011;3405;50.576;12.364;2023-02-11T09:55:32;2.88;;;2.50;;
6735;SDS011;3405;50.576;12.364;2023-02-11T09:58:02;3.17;;;2.58;;
6735;SDS011;3405;50.576;12.364;2023-02-11T10:01:12;3.40;;;3.08;;
6735;SDS011;3405;50.576;12.364;2023-02-11T10:03:20;4.15;;;3.03;;
6735;SDS011;3405;50.576;12.364;2023-02-11T10:24:28;2.90;;;2.60;;
6735;SDS011;3405;50.576;12.364;2023-02-11T10:26:54;2.85;;;2.63;;
6735;SDS011;3405;50.576;12.364;2023-02-11T10:29:24;3.58;;;3.10;;
6735;SDS011;3405;50.576;12.364;2023-02-11T10:31:51;4.03;;;2.70;;
6735;SDS011;3405;50.576;12.364;2023-02-11T10:34:17;3.78;;;2.88;;
6735;SDS011;3405;50.576;12.364;2023-02-11T10:36:43;3.03;;;2.72;;
6735;SDS011;3405;50.576;12.364;2023-02-11T10:39:11;2.60;;;2.40;;
6735;SDS011;3405;50.576;12.364;2023-02-11T10:41:38;3.17;;;2.80;;
6735;SDS011;3405;50.576;12.364;2023-02-11T10:44:06;2.78;;;2.58;;
6735;SDS011;3405;50.576;12.364;2023-02-11T10:46:32;3.50;;;2.90;;
6735;SDS011;3405;50.576;12.364;2023-02-11T10:49:01;3.53;;;2.78;;
6735;SDS011;3405;50.576;12.364;2023-02-11T10:51:28;3.67;;;2.90;;
6735;SDS011;3405;50.576;12.364;2023-02-11T10:56:30;2.72;;;2.40;;
6735;SDS011;3405;50.576;12.364;2023-02-11T10:59:00;3.33;;;2.88;;
6735;SDS011;3405;50.576;12.364;2023-02-11T11:09:49;3.25;;;2.80;;
6735;SDS011;3405;50.576;12.364;2023-02-11T11:12:30;3.17;;;2.70;;
6735;SDS011;3405;50.576;12.364;2023-02-11T11:14:57;3.28;;;2.78;;
6735;SDS011;3405;50.576;12.364;2023-02-11T11:17:23;3.03;;;2.45;;
6735;SDS011;3405;50.576;12.364;2023-02-11T11:19:53;4.70;;;2.75;;
6735;SDS011;3405;50.576;12.364;2023-02-11T11:22:19;2.60;;;2.40;;
6735;SDS011;3405;50.576;12.364;2023-02-11T11:24:46;2.70;;;2.50;;
6735;SDS011;3405;50.576;12.364;2023-02-11T11:27:18;3.20;;;2.90;;
6735;SDS011;3405;50.576;12.364;2023-02-11T11:29:47;2.85;;;2.63;;
6735;SDS011;3405;50.576;12.364;2023-02-11T11:32:21;2.85;;;2.55;;
6735;SDS011;3405;50.576;12.364;2023-02-11T11:34:51;3.08;;;2.67;;
6735;SDS011;3405;50.576;12.364;2023-02-11T11:37:21;3.00;;;2.70;;
6735;SDS011;3405;50.576;12.364;2023-02-11T11:42:23;2.80;;;2.60;;
6735;SDS011;3405;50.576;12.364;2023-02-11T11:45:00;3.03;;;2.72;;
6735;SDS011;3405;50.576;12.364;2023-02-11T11:50:04;2.70;;;2.50;;
6735;SDS011;3405;50.576;12.364;2023-02-11T11:52:36;2.50;;;2.30;;
6735;SDS011;3405;50.576;12.364;2023-02-11T11:55:12;3.00;;;2.60;;
6735;SDS011;3405;50.576;12.364;2023-02-11T11:57:39;3.30;;;3.00;;
6735;SDS011;3405;50.576;12.364;2023-02-11T12:00:05;3.10;;;2.80;;
6735;SDS011;3405;50.576;12.364;2023-02-11T12:10:23;4.40;;;2.85;;
6735;SDS011;3405;50.576;12.364;2023-02-11T12:15:22;3.22;;;2.72;;
6735;SDS011;3405;50.576;12.364;2023-02-11T12:17:56;3.95;;;2.67;;
6735;SDS011;3405;50.576;12.364;2023-02-11T12:20:35;3.03;;;2.72;;
6735;SDS011;3405;50.576;12.364;2023-02-11T12:23:10;3.22;;;2.90;;
6735;SDS011;3405;50.576;12.364;2023-02-11T12:25:47;3.20;;;2.90;;
6735;SDS011;3405;50.576;12.364;2023-02-11T12:30:51;3.00;;;2.70;;
6735;SDS011;3405;50.576;12.364;2023-02-11T12:33:30;3.05;;;2.50;;
6735;SDS011;3405;50.576;12.364;2023-02-11T12:36:01;4.25;;;3.05;;
6735;SDS011;3405;50.576;12.364;2023-02-11T12:43:36;2.67;;;2.47;;
6735;SDS011;3405;50.576;12.364;2023-02-11T12:48:55;2.67;;;2.47;;
6735;SDS011;3405;50.576;12.364;2023-02-11T12:51:39;3.17;;;2.88;;
6735;SDS011;3405;50.576;12.364;2023-02-11T12:56:36;3.05;;;2.60;;
6735;SDS011;3405;50.576;12.364;2023-02-11T12:59:05;2.90;;;2.70;;
6735;SDS011;3405;50.576;12.364;2023-02-11T13:01:35;2.72;;;2.53;;
6735;SDS011;3405;50.576;12.364;2023-02-11T13:04:16;2.58;;;2.38;;
6735;SDS011;3405;50.576;12.364;2023-02-11T13:06:49;2.70;;;2.50;;
6735;SDS011;3405;50.576;12.364;2023-02-11T13:09:26;2.72;;;2.53;;
6735;SDS011;3405;50.576;12.364;2023-02-11T13:11:54;2.80;;;2.60;;
6735;SDS011;3405;50.576;12.364;2023-02-11T13:14:29;2.85;;;2.55;;
6735;SDS011;3405;50.576;12.364;2023-02-11T13:16:56;2.75;;;2.53;;
6735;SDS011;3405;50.576;12.364;2023-02-11T13:19:30;2.80;;;2.60;;
6735;SDS011;3405;50.576;12.364;2023-02-11T13:22:12;3.15;;;2.85;;
6735;SDS011;3405;50.576;12.364;2023-02-11T13:24:42;2.50;;;2.30;;
6735;SDS011;3405;50.576;12.364;2023-02-11T13:27:28;2.65;;;2.42;;
6735;SDS011;3405;50.576;12.364;2023-02-11T13:35:32;2.75;;;2.47;;
6735;SDS011;3405;50.576;12.364;2023-02-11T13:37:59;3.08;;;2.78;;
6735;SDS011;3405;50.576;12.364;2023-02-11T13:40:26;3.00;;;2.70;;
6735;SDS011;3405;50.576;12.364;2023-02-11T13:42:54;2.60;;;2.40;;
6735;SDS011;3405;50.576;12.364;2023-02-11T13:45:26;2.83;;;2.63;;
6735;SDS011;3405;50.576;12.364;2023-02-11T13:47:57;3.17;;;2.88;;
6735;SDS011;3405;50.576;12.364;2023-02-11T13:50:23;2.78;;;2.58;;
6735;SDS011;3405;50.576;12.364;2023-02-11T13:52:56;2.70;;;2.50;;
6735;SDS011;3405;50.576;12.364;2023-02-11T13:55:22;2.78;;;2.10;;
6735;SDS011;3405;50.576;12.364;2023-02-11T14:11:46;2.70;;;2.50;;
6735;SDS011;3405;50.576;12.364;2023-02-11T14:19:39;2.63;;;2.25;;
6735;SDS011;3405;50.576;12.364;2023-02-11T14:22:11;2.80;;;2.60;;
6735;SDS011;3405;50.576;12.364;2023-02-11T14:25:00;2.78;;;2.55;;
6735;SDS011;3405;50.576;12.364;2023-02-11T14:27:33;2.72;;;2.53;;
6735;SDS011;3405;50.576;12.364;2023-02-11T14:30:08;2.80;;;2.60;;
6735;SDS011;3405;50.576;12.364;2023-02-11T14:32:43;4.10;;;2.50;;
6735;SDS011;3405;50.576;12.364;2023-02-11T14:35:15;2.53;;;2.33;;
6735;SDS011;3405;50.576;12.364;2023-02-11T14:40:30;3.10;;;2.58;;
6735;SDS011;3405;50.576;12.364;2023-02-11T14:43:00;3.13;;;2.83;;
6735;SDS011;3405;50.576;12.364;2023-02-11T14:45:28;2.60;;;2.30;;
6735;SDS011;3405;50.576;12.364;2023-02-11T14:48:13;2.63;;;2.42;;
6735;SDS011;3405;50.576;12.364;2023-02-11T14:50:44;2.72;;;2.53;;
6735;SDS011;3405;50.576;12.364;2023-02-11T14:53:15;2.67;;;2.47;;
6735;SDS011;3405;50.576;12.364;2023-02-11T14:55:41;2.60;;;2.40;;
6735;SDS011;3405;50.576;12.364;2023-02-11T15:03:56;2.42;;;2.22;;
6735;SDS011;3405;50.576;12.364;2023-02-11T15:06:24;2.83;;;2.58;;
6735;SDS011;3405;50.576;12.364;2023-02-11T15:09:12;2.80;;;2.50;;
6735;SDS011;3405;50.576;12.364;2023-02-11T15:11:40;4.35;;;2.70;;
6735;SDS011;3405;50.576;12.364;2023-02-11T15:14:08;3.33;;;2.90;;
6735;SDS011;3405;50.576;12.364;2023-02-11T15:16:38;2.90;;;2.50;;
6735;SDS011;3405;50.576;12.364;2023-02-11T15:19:05;2.53;;;2.33;;
6735;SDS011;3405;50.576;12.364;2023-02-11T15:21:32;3.08;;;2.70;;
6735;SDS011;3405;50.576;12.364;2023-02-11T15:24:00;2.80;;;2.50;;
6735;SDS011;3405;50.576;12.364;2023-02-11T15:26:26;4.38;;;2.53;;
6735;SDS011;3405;50.576;12.364;2023-02-11T15:28:52;2.72;;;2.53;;
6735;SDS011;3405;50.576;12.364;2023-02-11T15:31:21;3.58;;;2.35;;
6735;SDS011;3405;50.576;12.364;2023-02-11T15:33:47;4.28;;;2.65;;
6735;SDS011;3405;50.576;12.364;2023-02-11T15:36:14;4.55;;;2.60;;
6735;SDS011;3405;50.576;12.364;2023-02-11T15:38:40;3.25;;;2.50;;
6735;SDS011;3405;50.576;12.364;2023-02-11T15:41:06;4.63;;;3.08;;
6735;SDS011;3405;50.576;12.364;2023-02-11T15:43:45;4.70;;;2.88;;
6735;SDS011;3405;50.576;12.364;2023-02-11T15:46:12;7.13;;;3.10;;
6735;SDS011;3405;50.576;12.364;2023-02-11T15:48:46;4.07;;;3.33;;
6735;SDS011;3405;50.576;12.364;2023-02-11T15:51:23;3.55;;;3.08;;
6735;SDS011;3405;50.576;12.364;2023-02-11T15:53:54;3.92;;;3.13;;
6735;SDS011;3405;50.576;12.364;2023-02-11T15:58:49;4.25;;;3.28;;
6735;SDS011;3405;50.576;12.364;2023-02-11T16:01:16;5.07;;;3.08;;
6735;SDS011;3405;50.576;12.364;2023-02-11T16:03:42;4.95;;;2.83;;
6735;SDS011;3405;50.576;12.364;2023-02-11T16:06:21;4.47;;;3.50;;
6735;SDS011;3405;50.576;12.364;2023-02-11T16:09:04;3.67;;;3.03;;
6735;SDS011;3405;50.576;12.364;2023-02-11T16:11:32;5.53;;;3.00;;
6735;SDS011;3405;50.576;12.364;2023-02-11T16:13:59;5.43;;;3.13;;
6735;SDS011;3405;50.576;12.364;2023-02-11T16:16:31;5.18;;;3.05;;
6735;SDS011;3405;50.576;12.364;2023-02-11T16:18:59;4.18;;;3.38;;
6735;SDS011;3405;50.576;12.364;2023-02-11T16:21:32;4.95;;;3.45;;
6735;SDS011;3405;50.576;12.364;2023-02-11T16:24:00;4.32;;;3.17;;
6735;SDS011;3405;50.576;12.364;2023-02-11T16:26:30;6.97;;;2.90;;
6735;SDS011;3405;50.576;12.364;2023-02-11T16:29:10;4.35;;;3.28;;
6735;SDS011;3405;50.576;12.364;2023-02-11T16:31:39;4.88;;;3.00;;
6735;SDS011;3405;50.576;12.364;2023-02-11T16:34:12;6.38;;;3.38;;
6735;SDS011;3405;50.576;12.364;2023-02-11T16:36:38;4.22;;;3.05;;
6735;SDS011;3405;50.576;12.364;2023-02-11T16:39:04;4.38;;;2.90;;
6735;SDS011;3405;50.576;12.364;2023-02-11T16:41:30;5.32;;;3.38;;
6735;SDS011;3405;50.576;12.364;2023-02-11T16:43:56;6.40;;;3.25;;
6735;SDS011;3405;50.576;12.364;2023-02-11T16:46:22;4.80;;;2.92;;
6735;SDS011;3405;50.576;12.364;2023-02-11T16:48:48;6.30;;;3.53;;
6735;SDS011;3405;50.576;12.364;2023-02-11T16:51:14;5.75;;;3.20;;
6735;SDS011;3405;50.576;12.364;2023-02-11T16:53:40;5.68;;;3.20;;
6735;SDS011;3405;50.576;12.364;2023-02-11T16:56:09;4.85;;;3.13;;
6735;SDS011;3405;50.576;12.364;2023-02-11T16:58:36;6.07;;;3.20;;
6735;SDS011;3405;50.576;12.364;2023-02-11T17:01:02;6.50;;;3.42;;
6735;SDS011;3405;50.576;12.364;2023-02-11T17:03:27;4.82;;;3.28;;
6735;SDS011;3405;50.576;12.364;2023-02-11T17:05:55;7.22;;;3.75;;